• Join FlightAware (Why Join?)
  • Login
  • US Flag 
Gobble Gobble! 
04:03PM EST


 

Airport Tracker/Info


-or-


 

Live Flight TrackerFlight Track Log ✈ EGF2976 ✈ 13-May-2013 ✈ KDFW - KCMI

Flight Track Log - Related Links

Times and Time Zones

All times are in EDT time to prevent confusion due to time zone crossing. See the EGF2976 flight status page for this flight to view local times or setup timezone preferences in your user account.

Time Position Orientation Groundspeed Altitude Reporting Facility
EDT Latitude Longitude Course Direction KTS MPH feet Rate Location/Type
08:25PM 32.8833 -97.0333 North 173 199 1,200  Level Dallas / Fort Worth TRACON
08:26PM 32.8500 -97.0167 157° South 202 232 2,500 1,920 Climbing Dallas / Fort Worth TRACON
08:27PM 32.7550 -96.9034 79° East  Level FlightAware Approximate
08:27PM 32.8000 -97.0000 164° South 208 239 4,700  Level Dallas / Fort Worth TRACON
08:28PM 32.7963 -96.8107 10° North  Level FlightAware Approximate
08:28PM 32.7667 -96.9333 121° Southeast 248 285 6,500  Level Dallas / Fort Worth TRACON
08:29PM 32.8998 -96.8000 North  Level FlightAware Approximate
08:30PM 33.0040 -96.8000 North  Level FlightAware Approximate
08:30PM 32.8278 -96.8200 57° Northeast 273 314 10,500  Level Fort Worth Center
08:31PM 32.9175 -96.8094 North 273 314 11,800 1,260 Climbing Fort Worth Center
08:32PM 32.9969 -96.8117 359° North 303 349 13,100 1,260 Climbing Fort Worth Center
08:33PM 33.1011 -96.8133 359° North 333 383 14,400 1,380 Climbing Fort Worth Center
08:34PM 33.1994 -96.8175 358° North 345 397 15,900 1,500 Climbing Fort Worth Center
08:35PM 33.2975 -96.8194 359° North 345 397 17,400 1,260 Climbing Fort Worth Center
08:36PM 33.3936 -96.8214 359° North 345 397 18,500 1,320 Climbing Fort Worth Center
08:37PM 33.4872 -96.7983 12° North 345 397 20,100 1,620 Climbing Fort Worth Center
08:38PM 33.5725 -96.7453 27° Northeast 340 391 21,800 1,800 Climbing Fort Worth Center
08:39PM 33.6558 -96.6922 28° Northeast 340 391 23,700 1,680 Climbing Fort Worth Center
08:40PM 33.7389 -96.6392 28° Northeast 335 386 25,200 1,380 Climbing Fort Worth Center
08:41PM 33.8222 -96.5858 28° Northeast 330 380 26,500 1,140 Climbing Fort Worth Center
08:42PM 33.9031 -96.5375 26° Northeast 325 374 27,500 1,080 Climbing Fort Worth Center
08:43PM 33.9906 -96.4792 29° Northeast 336 387 28,700 1,140 Climbing Fort Worth Center
08:44PM 34.0756 -96.4206 30° Northeast 336 387 29,800 1,140 Climbing Fort Worth Center
08:45PM 34.1583 -96.3519 34° Northeast 341 392 31,000 1,200 Climbing Fort Worth Center
08:46PM 34.2392 -96.2831 35° Northeast 346 398 32,200 1,140 Climbing Fort Worth Center
08:47PM 34.3200 -96.2167 34° Northeast 351 404 33,300 1,080 Climbing Fort Worth Center
08:48PM 34.4028 -96.1525 33° Northeast 351 404 34,400 1,140 Climbing Fort Worth Center
08:49PM 34.4856 -96.0808 36° Northeast 351 404 35,600 1,140 Climbing Fort Worth Center
08:50PM 34.5642 -96.0164 34° Northeast 351 404 36,700 660 Climbing Fort Worth Center
08:51PM 34.6322 -95.9422 42° Northeast 340 391 37,000 120 Climbing Fort Worth Center
08:52PM 34.7042 -95.8653 41° Northeast 335 386 37,000  Level Fort Worth Center
08:53PM 34.7803 -95.7803 43° Northeast 345 397 37,000  Level Fort Worth Center
08:54PM 34.9164 -95.6397 40° Northeast 372 428 37,000  Level Memphis Center
08:55PM 34.9953 -95.5508 43° Northeast 378 435 37,000  Level Memphis Center
08:56PM 35.0761 -95.4569 44° Northeast 383 441 37,000  Level Memphis Center
08:57PM 35.1611 -95.3681 41° Northeast 388 447 37,000  Level Memphis Center
08:58PM 35.2400 -95.2739 44° Northeast 388 447 37,000  Level Memphis Center
08:59PM 35.3186 -95.1867 42° Northeast 388 447 37,000  Level Memphis Center
09:00PM 35.3969 -95.0969 43° Northeast 382 440 37,000  Level Memphis Center
09:01PM 35.4756 -95.0097 42° Northeast 377 434 37,000  Level Memphis Center
09:02PM 35.5539 -94.9222 42° Northeast 377 434 37,000  Level Memphis Center
09:03PM 35.6300 -94.8319 44° Northeast 382 440 37,000  Level Memphis Center
09:04PM 35.7083 -94.7417 43° Northeast 382 440 37,000  Level Memphis Center
09:05PM 35.7886 -94.6536 42° Northeast 382 440 37,000  Level Memphis Center
09:06PM 35.8647 -94.5631 44° Northeast 382 440 37,000  Level Memphis Center
09:07PM 35.9447 -94.4722 43° Northeast 382 440 37,000  Level Memphis Center
09:08PM 36.0208 -94.3783 45° Northeast 382 440 37,000  Level Memphis Center
09:09PM 36.1008 -94.2900 42° Northeast 382 440 37,000  Level Memphis Center
09:10PM 36.1808 -94.1961 43° Northeast 382 440 37,000  Level Memphis Center
09:11PM 36.2586 -94.1044 44° Northeast 382 440 37,000  Level Memphis Center
09:12PM 36.3347 -94.0050 46° Northeast 382 440 37,000  Level Memphis Center
09:13PM 36.3767 -93.9494 47° Northeast 392 451 37,000  Level Kansas City Center
09:14PM 36.4503 -93.8506 47° Northeast 392 451 37,000  Level Kansas City Center
09:15PM 36.5289 -93.7469 47° Northeast 392 451 37,000  Level Kansas City Center
09:16PM 36.6036 -93.6469 47° Northeast 393 452 37,000  Level Kansas City Center
09:17PM 36.6792 -93.5475 47° Northeast 395 455 37,000  Level Kansas City Center
09:18PM 36.7544 -93.4478 47° Northeast 395 455 37,000  Level Kansas City Center
09:19PM 36.8292 -93.3478 47° Northeast 394 453 37,000  Level Kansas City Center
09:20PM 36.9019 -93.2492 47° Northeast 398 458 37,000  Level Kansas City Center
09:21PM 36.9914 -93.1250 48° Northeast 399 459 37,000  Level Kansas City Center
09:22PM 37.0683 -93.0244 46° Northeast 400 460 37,000  Level Kansas City Center
09:23PM 37.1428 -92.9192 48° Northeast 401 461 37,000  Level Kansas City Center
09:24PM 37.2183 -92.8164 47° Northeast 401 461 37,000  Level Kansas City Center
09:25PM 37.2931 -92.7136 48° Northeast 399 459 37,000  Level Kansas City Center
09:26PM 37.3675 -92.6119 47° Northeast 398 458 37,000  Level Kansas City Center
09:27PM 37.4417 -92.5064 48° Northeast 400 460 37,000  Level Kansas City Center
09:28PM 37.5156 -92.4039 48° Northeast 398 458 37,000  Level Kansas City Center
09:29PM 37.6044 -92.2814 47° Northeast 397 457 37,000  Level Kansas City Center
09:30PM 37.6769 -92.1819 47° Northeast 400 460 37,000  Level Kansas City Center
09:31PM 37.7519 -92.0747 48° Northeast 399 459 37,000  Level Kansas City Center
09:32PM 37.8256 -91.9725 48° Northeast 398 458 37,000  Level Kansas City Center
09:33PM 37.9003 -91.8686 48° Northeast 399 459 37,000  Level Kansas City Center
09:34PM 37.9747 -91.7633 48° Northeast 401 461 37,000  Level Kansas City Center
09:35PM 38.0486 -91.6581 48° Northeast 401 461 37,000  Level Kansas City Center
09:36PM 38.1375 -91.5311 48° Northeast 402 463 37,000  Level Kansas City Center
09:38PM 38.2114 -91.4253 48° Northeast 401 461 37,000  Level Kansas City Center
09:39PM 38.2853 -91.3192 48° Northeast 402 463 37,000  Level Kansas City Center
09:40PM 38.3597 -91.2133 48° Northeast 403 464 37,000  Level Kansas City Center
09:41PM 38.4336 -91.1072 48° Northeast 401 461 37,000  Level Kansas City Center
09:42PM 38.5064 -91.0019 49° Northeast 398 458 37,000  Level Kansas City Center
09:43PM 38.5797 -90.8944 49° Northeast 399 459 37,000 -180 Level Kansas City Center
09:44PM 38.6533 -90.7878 49° Northeast 399 459 36,700 -720 Descending Kansas City Center
09:45PM 38.7417 -90.6597 48° Northeast 397 457 35,600 -1,080 Descending Kansas City Center
09:46PM 38.8139 -90.5506 50° Northeast 398 458 34,600 -1,080 Descending Kansas City Center
09:47PM 38.8903 -90.4403 48° Northeast 404 465 33,500 -1,200 Descending Kansas City Center
09:48PM 38.9572 -90.3106 56° Northeast 413 475 32,200 -1,380 Descending Kansas City Center
09:49PM 39.0267 -90.1836 55° Northeast 428 493 30,700 -1,500 Descending Kansas City Center
09:50PM 39.0972 -90.0525 55° Northeast 439 505 29,200 -1,560 Descending Kansas City Center
09:51PM 39.1728 -89.9153 55° Northeast 447 514 27,600 -1,560 Descending Kansas City Center
09:52PM 39.2406 -89.7894 55° Northeast 447 514 26,100 -1,440 Descending Kansas City Center
09:53PM 39.3106 -89.6592 55° Northeast 444 511 24,700 -1,200 Descending Kansas City Center
09:54PM 39.3800 -89.5281 56° Northeast 442 509 23,700 -1,020 Descending Kansas City Center
09:55PM 39.4517 -89.3981 54° Northeast 444 511 22,700 -1,080 Descending Kansas City Center
09:56PM 39.5242 -89.2589 56° Northeast 443 510 21,600 -1,080 Descending Kansas City Center
09:57PM 39.5931 -89.1297 55° Northeast 439 505 20,600 -1,020 Descending Kansas City Center
09:58PM 39.6611 -89.0014 55° Northeast 435 501 19,600 -1,140 Descending Kansas City Center
09:59PM 39.7400 -88.8508 56° Northeast 426 490 18,400 -1,080 Descending Kansas City Center
10:00PM 39.8056 -88.7253 56° Northeast 422 486 17,400 -2,100 Descending Kansas City Center
10:01PM 39.8667 -88.6072 56° Northeast 403 464 14,200 -2,940 Descending Kansas City Center
10:02PM 39.9264 -88.4964 55° Northeast 384 442 11,400 -1,620 Descending Kansas City Center
10:03PM 39.9822 -88.3933 55° Northeast 371 427 10,900 -1,080 Descending Kansas City Center
10:04PM 40.0200 -88.3156 58° Northeast 310 357 9,200 -2,280 Descending Kansas City Center
10:05PM 40.0636 -88.2389 53° Northeast 280 322 6,300 -2,220 Descending Kansas City Center
10:06PM 40.1183 -88.2236 12° North 252 290 4,900 -1,500 Descending Chicago Center